Terminal Aerodrome Forecast
Issued by NWS

Home | Current Version | Previous Version | Text Only | Print | Product List | Glossary On
Versions: 1 2 3 4 5 6 7 8 9 10 11 12 13 14
000
FTUS45 KRIW 261741
TAFBPI
TAF
KBPI 261741Z 2618/2718 29008KT P6SM VCSH SCT015 BKN040
     FM270100 28012KT 3SM -SHSN OVC015
     FM270800 32014G22KT P6SM VCSH SCT020 BKN035
     FM271500 32022G32KT P6SM VCSH OVC040=

USA.gov is the U.S. government's official web portal to all federal, state and local government web resources and services.